Time;durP1;ratioP1;P1;durP2;ratioP2;P2;SDS_P1;SDS_P2;PMS_P1;PMS_P2;Temp;Humidity;BMP_temperature;BMP_pressure;BME280_temperature;BME280_humidity;BME280_pressure;Samples;Min_cycle;Max_cycle;Signal;HPM_P1;HPM_P2
2021/11/25 00:10:06;;;;;;;20.40;11.68;;;;;;;2.55;68.37;99564.47;1081626;46;20037;-83
2021/11/25 00:11:08;;;;;;;19.58;11.50;;;;;;;2.60;68.29;99553.59;1088153;54;20030;-83
2021/11/25 00:12:25;;;;;;;18.33;12.15;;;;;;;2.62;68.49;99555.22;1088139;54;20030;-85
2021/11/25 00:13:27;;;;;;;17.80;10.95;;;;;;;2.60;68.38;99551.84;1088213;54;20015;-84
2021/11/25 00:14:46;;;;;;;20.95;11.57;;;;;;;2.69;68.09;99544.22;1088230;54;20038;-84
2021/11/25 00:15:48;;;;;;;18.67;11.60;;;;;;;2.74;68.16;99545.59;1088137;54;20037;-83
2021/11/25 00:17:03;;;;;;;21.35;12.30;;;;;;;2.74;68.18;99539.50;1088068;54;20196;-83
2021/11/25 00:18:13;;;;;;;18.55;11.80;;;;;;;2.78;68.24;99544.44;1087834;54;20031;-83
2021/11/25 00:19:24;;;;;;;18.60;11.50;;;;;;;2.80;68.49;99539.88;1087809;54;20038;-83
2021/11/25 00:20:29;;;;;;;18.00;11.95;;;;;;;2.82;68.26;99542.44;1088040;54;20053;-83
2021/11/25 00:21:37;;;;;;;18.80;11.70;;;;;;;2.83;68.33;99543.25;1088037;54;20010;-83
2021/11/25 00:22:46;;;;;;;18.80;12.55;;;;;;;2.78;68.36;99543.59;1088104;54;20038;-83
2021/11/25 00:23:51;;;;;;;18.80;11.88;;;;;;;2.81;68.24;99527.53;1088035;54;20054;-83
2021/11/25 00:24:56;;;;;;;18.83;11.93;;;;;;;2.91;68.49;99531.22;1089185;46;20029;-84
2021/11/25 00:26:10;;;;;;;18.02;11.38;;;;;;;2.91;67.88;99525.94;1088007;54;20057;-85
2021/11/25 00:27:13;;;;;;;19.52;12.45;;;;;;;2.93;68.21;99525.81;1088121;54;20045;-85
2021/11/25 00:28:34;;;;;;;19.60;12.35;;;;;;;2.95;67.97;99529.19;1088008;54;20040;-82
2021/11/25 00:29:41;;;;;;;18.25;11.35;;;;;;;2.97;68.07;99532.59;1088061;54;20034;-82
2021/11/25 00:30:46;;;;;;;18.45;11.18;;;;;;;2.95;68.19;99535.31;1087981;54;20041;-83
2021/11/25 00:31:51;;;;;;;20.25;12.23;;;;;;;2.90;68.13;99526.88;1088047;54;20014;-81
2021/11/25 00:33:08;;;;;;;20.80;12.20;;;;;;;2.92;68.03;99525.00;1087902;54;20102;-83
2021/11/25 00:34:21;;;;;;;18.20;11.48;;;;;;;2.93;68.08;99526.66;1088002;54;20013;-82
2021/11/25 00:35:26;;;;;;;19.67;12.50;;;;;;;2.91;68.21;99533.88;1091240;46;20054;-82
2021/11/25 00:36:29;;;;;;;18.35;11.75;;;;;;;2.95;68.21;99526.56;1087975;54;20035;-83
2021/11/25 00:37:38;;;;;;;17.85;11.10;;;;;;;3.02;67.94;99524.34;1087946;54;20046;-82
2021/11/25 00:38:40;;;;;;;19.65;11.85;;;;;;;3.02;67.85;99521.69;1089432;46;20031;-85
2021/11/25 00:40:01;;;;;;;19.05;11.93;;;;;;;2.96;67.49;99521.16;1087956;54;20391;-83
2021/11/25 00:41:06;;;;;;;22.13;13.95;;;;;;;2.87;68.07;99519.16;1087998;54;20044;-83
2021/11/25 00:42:13;;;;;;;19.55;13.02;;;;;;;2.84;67.89;99518.56;1087998;54;20057;-83
2021/11/25 00:43:18;;;;;;;21.55;13.90;;;;;;;2.86;67.98;99520.13;1088092;54;20037;-84
2021/11/25 00:44:23;;;;;;;20.00;13.10;;;;;;;2.80;68.36;99516.13;1087975;54;20039;-85
2021/11/25 00:45:35;;;;;;;21.80;13.25;;;;;;;2.86;67.99;99514.84;1088491;46;20754;-82
2021/11/25 00:46:44;;;;;;;20.17;11.98;;;;;;;2.88;68.25;99510.31;1087997;54;20034;-84
2021/11/25 00:47:54;;;;;;;18.20;11.75;;;;;;;2.90;67.95;99510.19;1088046;54;20030;-84
2021/11/25 00:48:56;;;;;;;18.98;12.25;;;;;;;2.87;68.09;99511.25;1087886;54;20042;-83
2021/11/25 00:50:09;;;;;;;22.30;13.68;;;;;;;2.80;68.03;99515.28;1087984;54;20035;-84
2021/11/25 00:51:11;;;;;;;20.35;12.70;;;;;;;2.83;68.13;99516.84;1087946;54;20035;-85
2021/11/25 00:52:24;;;;;;;20.08;13.43;;;;;;;2.78;68.12;99512.75;1091268;46;20018;-85
2021/11/25 00:53:30;;;;;;;19.45;12.70;;;;;;;2.80;68.36;99508.19;1089233;46;20042;-84
2021/11/25 00:54:38;;;;;;;18.52;11.90;;;;;;;2.85;68.41;99510.50;1091863;46;20058;-83
2021/11/25 00:55:42;;;;;;;18.42;12.07;;;;;;;2.90;68.04;99502.25;1088040;54;20035;-83
2021/11/25 00:56:58;;;;;;;21.15;12.57;;;;;;;2.84;68.10;99511.47;1088867;46;20019;-82
2021/11/25 00:58:04;;;;;;;19.63;11.75;;;;;;;2.87;68.30;99508.63;1089404;46;20034;-84
2021/11/25 00:59:11;;;;;;;19.13;11.75;;;;;;;2.88;68.01;99499.75;1088012;54;20081;-82
2021/11/25 01:00:16;;;;;;;18.95;11.50;;;;;;;2.90;68.02;99503.13;1087992;54;20041;-83
2021/11/25 01:01:21;;;;;;;18.48;12.73;;;;;;;2.88;68.17;99507.66;1088312;46;20030;-84
2021/11/25 01:02:23;;;;;;;19.00;12.40;;;;;;;2.87;68.17;99505.13;1088139;47;20041;-83
2021/11/25 01:03:43;;;;;;;19.75;12.73;;;;;;;2.77;68.08;99500.50;1088193;54;20046;-84
2021/11/25 01:04:48;;;;;;;19.65;13.02;;;;;;;2.73;68.17;99498.19;1088041;54;20030;-83
2021/11/25 01:06:00;;;;;;;21.70;13.32;;;;;;;2.68;68.47;99502.94;1088166;54;20030;-85
2021/11/25 01:07:05;;;;;;;19.30;12.23;;;;;;;2.69;68.38;99502.84;1089716;46;20057;-84
2021/11/25 01:08:22;;;;;;;20.23;12.75;;;;;;;2.63;68.63;99495.34;1088459;46;20025;-84
2021/11/25 01:09:29;;;;;;;23.17;13.88;;;;;;;2.61;68.73;99495.47;1088007;54;20041;-82
2021/11/25 01:10:40;;;;;;;21.42;14.30;;;;;;;2.62;68.87;99494.50;1090169;31;20879;-84
2021/11/25 01:11:46;;;;;;;;;;;;;;;2.55;69.01;99493.22;1088200;54;20698;-86
2021/11/25 01:12:55;;;;;;;18.30;11.65;;;;;;;2.59;68.96;99489.44;1088058;54;20658;-83
2021/11/25 01:14:00;;;;;;;19.30;12.73;;;;;;;2.59;68.83;99491.25;1088172;54;20034;-84
2021/11/25 01:15:08;;;;;;;19.52;12.02;;;;;;;2.67;68.55;99490.69;1088038;54;20062;-84
2021/11/25 01:16:12;;;;;;;18.17;11.55;;;;;;;2.64;68.63;99492.63;1093339;39;20221;-83
2021/11/25 01:17:15;;;;;;;17.23;10.98;;;;;;;2.73;68.67;99492.91;1087890;54;20026;-83
2021/11/25 01:18:22;;;;;;;15.10;10.45;;;;;;;2.78;68.43;99490.78;1087820;54;20031;-83
2021/11/25 01:19:26;;;;;;;17.35;11.05;;;;;;;2.77;68.39;99492.59;1088055;54;20046;-85
2021/11/25 01:20:36;;;;;;;19.80;12.85;;;;;;;2.71;68.41;99486.91;1088831;39;20678;-82
2021/11/25 01:21:38;;;;;;;20.33;12.77;;;;;;;2.71;68.53;99490.38;1088070;54;20045;-83
2021/11/25 01:22:46;;;;;;;19.35;12.77;;;;;;;2.65;68.72;99489.00;1088039;54;20769;-83
2021/11/25 01:23:50;;;;;;;18.10;12.00;;;;;;;2.70;68.74;99491.31;1088066;54;20032;-83
2021/11/25 01:36:42;;;;;;;16.27;10.13;;;;;;;2.77;68.70;99475.88;1090577;39;20773;-83
2021/11/25 01:37:44;;;;;;;18.55;11.95;;;;;;;2.73;68.56;99477.91;1088243;54;20041;-84
2021/11/25 01:38:58;;;;;;;21.55;12.93;;;;;;;2.67;68.61;99477.50;1088227;54;20034;-83
2021/11/25 01:40:00;;;;;;;19.65;13.77;;;;;;;2.63;68.83;99479.50;1088155;54;20034;-84
2021/11/25 01:41:20;;;;;;;20.55;12.80;;;;;;;2.56;69.08;99475.63;1088310;54;20698;-85
2021/11/25 01:42:22;;;;;;;20.15;12.48;;;;;;;2.58;68.82;99474.56;1088361;54;20042;-84
2021/11/25 01:43:41;;;;;;;21.73;12.57;;;;;;;2.62;68.72;99481.31;1088251;54;20018;-84
2021/11/25 01:44:53;;;;;;;18.60;12.13;;;;;;;2.65;68.98;99481.06;1088213;54;20078;-85
2021/11/25 01:45:59;;;;;;;17.98;11.43;;;;;;;2.68;68.79;99474.75;1088230;54;20033;-83
2021/11/25 01:47:01;;;;;;;20.10;12.98;;;;;;;2.68;68.75;99480.03;1088280;54;20015;-84
2021/11/25 01:48:08;;;;;;;19.83;13.45;;;;;;;2.67;68.65;99485.41;1088200;54;20034;-82
2021/11/25 01:49:11;;;;;;;17.40;12.40;;;;;;;2.66;68.59;99479.31;1088126;54;20038;-84
2021/11/25 01:50:18;;;;;;;18.08;12.18;;;;;;;2.70;68.58;99477.28;1088242;54;20034;-85
2021/11/25 01:51:25;;;;;;;18.00;11.30;;;;;;;2.76;68.55;99476.84;1088197;54;20027;-83
2021/11/25 01:52:30;;;;;;;19.15;12.38;;;;;;;2.73;68.59;99479.72;1088249;54;20038;-84
2021/11/25 01:53:40;;;;;;;19.25;12.10;;;;;;;2.71;68.60;99473.69;1092992;39;20579;-83
2021/11/25 01:54:49;;;;;;;18.75;12.02;;;;;;;2.71;68.80;99471.88;1088145;54;20011;-82
2021/11/25 01:55:53;;;;;;;20.15;12.70;;;;;;;2.63;68.65;99471.59;1088232;54;20034;-84
2021/11/25 01:57:31;;;;;;;20.98;13.85;;;;;;;2.60;68.84;99474.44;1088162;54;20034;-85
2021/11/25 01:58:33;;;;;;;20.13;12.75;;;;;;;2.57;68.94;99472.03;1088254;54;20023;-83
2021/11/25 01:59:51;;;;;;;19.45;12.20;;;;;;;2.59;68.91;99470.97;1088194;54;20036;-83
2021/11/25 02:00:56;;;;;;;21.23;13.35;;;;;;;2.56;69.10;99465.88;1088005;54;20038;-82
2021/11/25 02:02:01;;;;;;;21.17;13.10;;;;;;;2.53;69.02;99457.34;1088110;54;20038;-84
2021/11/25 02:03:05;;;;;;;20.73;13.80;;;;;;;2.52;69.29;99459.16;1087965;54;20030;-85
2021/11/25 02:04:12;;;;;;;20.10;13.85;;;;;;;2.49;69.25;99459.38;1088202;54;20090;-82
2021/11/25 02:09:10;;;;;;;19.52;11.70;;;;;;;2.55;69.30;99463.38;1087399;54;20022;-77
2021/11/25 02:10:15;;;;;;;18.42;12.90;;;;;;;2.51;69.27;99460.09;1091563;39;20669;-86
2021/11/25 02:11:29;;;;;;;20.48;12.80;;;;;;;2.45;69.46;99457.91;1088259;54;20099;-84
2021/11/25 02:12:30;;;;;;;18.35;12.82;;;;;;;2.48;69.30;99457.66;1088245;54;20014;-85
2021/11/25 02:13:43;;;;;;;18.45;12.23;;;;;;;2.49;69.34;99464.63;1088054;54;20054;-85
2021/11/25 02:14:45;;;;;;;20.23;13.52;;;;;;;2.48;69.44;99455.03;1088194;54;20031;-84
2021/11/25 02:15:53;;;;;;;20.33;12.55;;;;;;;2.50;69.44;99459.25;1088203;54;20023;-83
2021/11/25 02:18:06;;;;;;;18.02;12.50;;;;;;;2.59;69.27;99449.03;1087353;54;20024;-84
2021/11/25 02:19:11;;;;;;;15.90;10.73;;;;;;;2.58;69.29;99452.59;1088214;54;20041;-82
2021/11/25 02:20:20;;;;;;;18.38;11.73;;;;;;;2.61;68.96;99450.59;1088092;54;20015;-83
2021/11/25 02:21:28;;;;;;;16.40;11.13;;;;;;;2.54;69.28;99441.44;1088065;54;20435;-85
2021/11/25 02:22:42;;;;;;;18.80;11.77;;;;;;;2.58;69.15;99448.16;1088171;54;20030;-85
2021/11/25 02:23:45;;;;;;;21.08;13.27;;;;;;;2.55;69.24;99442.25;1089186;31;20707;-82
2021/11/25 02:25:19;;;;;;;21.90;12.70;;;;;;;2.56;69.07;99450.06;1088203;54;20019;-83
2021/11/25 02:26:28;;;;;;;19.83;12.65;;;;;;;2.57;69.03;99445.63;1088153;54;20042;-86
2021/11/25 02:27:29;;;;;;;19.63;12.35;;;;;;;2.57;69.25;99437.72;1087926;54;20725;-79
2021/11/25 02:28:36;;;;;;;20.05;13.20;;;;;;;2.59;69.15;99439.28;1087409;54;20131;-79
2021/11/25 02:29:43;;;;;;;22.02;14.95;;;;;;;2.60;69.06;99434.84;1087591;54;20042;-81
2021/11/25 02:31:06;;;;;;;16.95;11.77;;;;;;;2.61;69.33;99433.91;1087968;54;20031;-83
2021/11/25 02:32:09;;;;;;;18.67;11.55;;;;;;;2.62;69.33;99439.09;1087567;54;20789;-81
2021/11/25 02:33:29;;;;;;;20.20;11.98;;;;;;;2.64;69.05;99429.28;1087602;54;20034;-84
2021/11/25 02:34:41;;;;;;;20.40;12.25;;;;;;;2.63;69.08;99438.13;1087561;54;20059;-82
2021/11/25 02:35:55;;;;;;;21.60;14.43;;;;;;;2.59;69.08;99431.38;1087576;54;20766;-83
2021/11/25 02:37:20;;;;;;;21.27;13.15;;;;;;;2.62;69.15;99438.22;1087674;54;20061;-83
2021/11/25 02:38:30;;;;;;;18.70;12.00;;;;;;;2.57;69.03;99425.34;1087757;54;20034;-84
2021/11/25 02:39:42;;;;;;;20.98;13.05;;;;;;;2.59;69.28;99434.00;1087710;47;20038;-83
2021/11/25 02:40:48;;;;;;;18.45;11.75;;;;;;;2.61;69.47;99429.47;1087756;54;20929;-80
2021/11/25 02:41:57;;;;;;;18.15;12.32;;;;;;;2.59;69.37;99422.63;1087583;54;20062;-81
2021/11/25 02:43:01;;;;;;;17.67;11.68;;;;;;;2.62;69.19;99430.31;1087747;54;20022;-80
2021/11/25 02:44:23;;;;;;;19.98;13.90;;;;;;;2.58;69.41;99420.94;1087465;54;20034;-79
2021/11/25 02:45:26;;;;;;;20.05;12.82;;;;;;;2.50;69.66;99419.66;1087381;54;20059;-77
2021/11/25 02:46:31;;;;;;;18.58;12.27;;;;;;;2.55;69.45;99421.97;1087335;54;20031;-77
2021/11/25 03:19:26;;;;;;;18.25;11.88;;;;;;;2.46;69.73;99377.78;1086958;54;20919;-78
2021/11/25 03:20:27;;;;;;;19.35;12.55;;;;;;;2.48;69.67;99368.81;1088757;39;20708;-78
2021/11/25 03:21:33;;;;;;;18.80;12.77;;;;;;;2.48;69.68;99374.09;1088183;54;20035;-79
2021/11/25 03:22:35;;;;;;;19.35;13.35;;;;;;;2.48;69.62;99370.59;1088171;54;20034;-79
2021/11/25 03:23:40;;;;;;;19.20;13.23;;;;;;;2.46;69.72;99376.00;1088117;54;20074;-80
2021/11/25 03:24:42;;;;;;;18.23;11.43;;;;;;;2.52;69.84;99377.34;1088255;54;20026;-80
2021/11/25 03:25:47;;;;;;;17.83;12.07;;;;;;;2.50;69.80;99369.53;1088172;54;20030;-80
2021/11/25 03:26:52;;;;;;;20.65;12.98;;;;;;;2.48;69.85;99374.09;1088216;54;20138;-78
2021/11/25 03:27:53;;;;;;;19.13;12.27;;;;;;;2.52;69.85;99369.44;1093769;39;20555;-79
2021/11/25 03:29:00;;;;;;;19.13;12.85;;;;;;;2.52;69.88;99373.84;1087983;54;20034;-79
2021/11/25 03:30:22;;;;;;;20.13;13.07;;;;;;;2.48;69.73;99366.19;1088336;54;20052;-80
2021/11/25 03:31:29;;;;;;;19.75;12.50;;;;;;;2.53;69.94;99367.63;1090970;39;20618;-79
2021/11/25 03:37:18;;;;;;;19.15;12.05;;;;;;;2.49;70.00;99367.00;1087699;54;20939;-81
2021/11/25 03:42:05;;;;;;;20.58;13.10;;;;;;;2.51;69.94;99367.75;1088461;54;20018;-79
2021/11/25 03:47:31;;;;;;;22.13;12.52;;;;;;;2.57;69.89;99366.47;1088441;54;20046;-79
2021/11/25 03:48:50;;;;;;;21.85;13.23;;;;;;;2.56;70.03;99364.78;1078446;54;20863;31
2021/11/25 03:51:30;;;;;;;24.23;14.55;;;;;;;2.41;70.22;99372.00;1081622;54;20934;-80
2021/11/25 04:35:33;;;;;;;23.48;14.82;;;;;;;2.59;70.38;99354.00;1079103;39;21495;-81
2021/11/25 04:36:40;;;;;;;21.35;14.02;;;;;;;2.55;70.41;99358.63;1088299;54;20031;-78
2021/11/25 04:37:43;;;;;;;22.02;13.63;;;;;;;2.59;70.26;99351.38;1088426;54;20027;-78
2021/11/25 04:38:47;;;;;;;20.92;13.32;;;;;;;2.63;70.11;99345.75;1094265;46;20026;-79
2021/11/25 04:40:19;;;;;;;19.20;13.48;;;;;;;2.61;70.06;99350.31;1088638;39;20693;-80
2021/11/25 04:41:21;;;;;;;21.52;14.07;;;;;;;2.64;70.15;99347.44;1088366;54;20031;-76
2021/11/25 04:42:26;;;;;;;25.35;15.25;;;;;;;2.62;70.32;99346.72;1088376;54;20034;-77
2021/11/25 04:43:30;;;;;;;24.17;15.48;;;;;;;2.62;70.31;99354.63;1088254;54;20059;-79
2021/11/25 04:44:35;;;;;;;24.17;14.45;;;;;;;2.61;70.34;99355.59;1096911;39;20615;-79
2021/11/25 04:45:48;;;;;;;21.70;13.75;;;;;;;2.65;70.19;99349.13;1088314;54;20694;-77
2021/11/25 04:46:53;;;;;;;21.52;14.35;;;;;;;2.61;70.18;99347.66;1095423;39;20590;-79
2021/11/25 04:47:58;;;;;;;23.23;14.25;;;;;;;2.61;70.48;99346.81;1088410;54;20037;-79
2021/11/25 04:49:31;;;;;;;25.40;15.30;;;;;;;2.55;70.33;99347.25;1088380;54;20019;-78
2021/11/25 04:50:36;;;;;;;21.95;14.90;;;;;;;2.58;70.53;99342.59;1088407;54;20021;-77
2021/11/25 04:51:41;;;;;;;21.52;14.05;;;;;;;2.64;70.27;99342.19;1088473;54;20030;-79
2021/11/25 04:52:50;;;;;;;22.45;13.95;;;;;;;2.61;70.41;99337.09;1096504;46;20041;-80
2021/11/25 04:53:56;;;;;;;22.48;14.07;;;;;;;2.60;70.46;99340.69;1096201;46;20035;-77
2021/11/25 04:55:05;;;;;;;22.30;14.27;;;;;;;2.59;70.28;99339.00;1088420;54;20097;-78
2021/11/25 04:56:10;;;;;;;21.45;13.60;;;;;;;2.68;70.47;99339.28;1088440;54;20022;-78
2021/11/25 04:57:18;;;;;;;21.20;13.68;;;;;;;2.73;69.99;99339.81;1088325;54;20014;-78
2021/11/25 04:58:23;;;;;;;25.60;15.13;;;;;;;2.68;70.40;99331.38;1088320;54;20038;-78
2021/11/25 04:59:38;;;;;;;24.15;15.25;;;;;;;2.68;70.39;99332.22;1088201;54;20035;-81
2021/11/25 05:00:41;;;;;;;23.55;15.35;;;;;;;2.69;70.20;99330.41;1088704;46;20034;-79
2021/11/25 05:02:14;;;;;;;20.65;13.45;;;;;;;2.72;70.11;99327.56;1088396;54;20031;-77
2021/11/25 05:03:19;;;;;;;23.55;13.50;;;;;;;2.69;70.18;99333.91;1091034;46;20031;-78
2021/11/25 05:04:39;;;;;;;24.85;14.90;;;;;;;2.63;70.27;99334.34;1088315;54;20762;-78
2021/11/25 05:05:44;;;;;;;23.15;14.77;;;;;;;2.64;70.48;99336.91;1088309;54;20670;-80
2021/11/25 05:06:49;;;;;;;21.08;14.40;;;;;;;2.65;70.51;99338.56;1088315;54;20041;-78
2021/11/25 05:07:55;;;;;;;21.38;14.10;;;;;;;2.65;70.14;99333.28;1088363;54;20019;-78
2021/11/25 05:08:59;;;;;;;21.58;13.13;;;;;;;2.71;70.27;99339.09;1088347;54;20095;-78
2021/11/25 05:10:09;;;;;;;20.95;13.07;;;;;;;2.67;70.42;99333.19;1088365;54;20015;-79
2021/11/25 05:11:14;;;;;;;24.42;15.15;;;;;;;2.68;70.34;99328.72;1088292;54;20114;-78
2021/11/25 05:12:16;;;;;;;22.35;14.70;;;;;;;2.69;70.33;99322.50;1090197;39;20641;-79
2021/11/25 05:13:21;;;;;;;24.05;15.52;;;;;;;2.67;70.39;99317.34;1088306;54;20019;-77
2021/11/25 05:14:38;;;;;;;25.45;16.30;;;;;;;2.65;70.30;99313.97;1088238;54;20039;-78
2021/11/25 05:15:43;;;;;;;23.85;14.88;;;;;;;2.61;70.70;99317.78;1088367;54;20022;-79
2021/11/25 05:16:51;;;;;;;23.42;15.63;;;;;;;2.58;70.55;99320.66;1088357;54;20014;-78
2021/11/25 05:17:58;;;;;;;25.15;16.65;;;;;;;2.63;70.72;99319.38;1088413;54;20034;-79
2021/11/25 05:19:02;;;;;;;21.73;14.23;;;;;;;2.67;70.57;99316.50;1088366;54;20061;-78
2021/11/25 05:20:10;;;;;;;21.88;14.02;;;;;;;2.72;70.46;99319.66;1088409;54;20075;-77
2021/11/25 05:21:17;;;;;;;24.48;15.98;;;;;;;2.67;70.55;99324.41;1088366;54;20022;-79
2021/11/25 05:22:25;;;;;;;23.15;15.15;;;;;;;2.69;70.28;99328.66;1088283;54;20038;-78
2021/11/25 05:23:30;;;;;;;21.08;13.27;;;;;;;2.73;70.43;99334.53;1088317;54;20025;-79
2021/11/25 05:24:34;;;;;;;22.40;14.65;;;;;;;2.72;70.16;99330.22;1088324;54;20041;-80
2021/11/25 05:25:38;;;;;;;24.38;15.35;;;;;;;2.71;70.50;99333.81;1088193;54;20034;-78
2021/11/25 05:26:40;;;;;;;23.85;14.82;;;;;;;2.68;70.18;99334.88;1088311;54;20061;-79
2021/11/25 05:27:45;;;;;;;23.08;15.10;;;;;;;2.64;70.55;99331.63;1088318;54;20744;-80
2021/11/25 05:28:50;;;;;;;22.50;15.05;;;;;;;2.71;70.55;99333.81;1088114;54;20049;-79
2021/11/25 05:29:52;;;;;;;23.42;14.63;;;;;;;2.76;70.41;99335.16;1088168;54;20021;-79
2021/11/25 05:30:57;;;;;;;22.45;14.45;;;;;;;2.73;70.42;99339.81;1088293;54;20694;-80
2021/11/25 05:32:01;;;;;;;25.55;16.88;;;;;;;2.66;70.31;99334.13;1089829;39;20218;-79
2021/11/25 05:33:06;;;;;;;26.60;17.05;;;;;;;2.63;70.50;99339.63;1088124;54;20712;-78
2021/11/25 05:34:20;;;;;;;25.38;16.58;;;;;;;2.59;70.68;99338.19;1088207;54;20018;-77
2021/11/25 05:35:29;;;;;;;25.20;16.25;;;;;;;2.56;70.74;99338.38;1087832;54;20709;-79
2021/11/25 05:36:36;;;;;;;25.02;16.10;;;;;;;2.58;70.67;99339.97;1088321;54;20019;-79
2021/11/25 05:37:40;;;;;;;24.33;15.60;;;;;;;2.62;70.51;99340.56;1088160;54;20686;-79
2021/11/25 05:38:49;;;;;;;23.88;15.57;;;;;;;2.59;70.44;99338.19;1088299;54;20026;-79
2021/11/25 05:39:51;;;;;;;23.67;15.57;;;;;;;2.65;70.49;99341.19;1088237;54;20034;-78
2021/11/25 05:40:59;;;;;;;21.38;13.55;;;;;;;2.74;70.48;99337.06;1088316;54;20722;-79
2021/11/25 05:42:01;;;;;;;23.17;14.30;;;;;;;2.79;70.17;99339.34;1088326;54;20042;-77
2021/11/25 05:43:15;;;;;;;24.02;14.35;;;;;;;2.77;70.01;99342.13;1088697;46;20034;-80
2021/11/25 05:44:17;;;;;;;20.95;13.10;;;;;;;2.84;70.22;99342.50;1091528;39;20634;-78
2021/11/25 05:45:33;;;;;;;20.05;12.85;;;;;;;2.81;70.04;99337.47;1088372;54;20010;-80
2021/11/25 05:46:35;;;;;;;22.17;13.35;;;;;;;2.80;69.90;99341.03;1088402;54;20827;-79
2021/11/25 05:47:48;;;;;;;26.33;14.60;;;;;;;2.76;70.06;99337.78;1088423;54;20019;-79
2021/11/25 05:48:50;;;;;;;24.23;15.43;;;;;;;2.76;70.20;99335.16;1088271;54;20042;-79
2021/11/25 05:50:13;;;;;;;24.05;15.25;;;;;;;2.74;70.19;99336.22;1088360;54;20029;-79
2021/11/25 05:51:18;;;;;;;23.67;14.80;;;;;;;2.74;70.41;99328.31;1088338;54;20023;-79
2021/11/25 05:52:23;;;;;;;24.17;15.05;;;;;;;2.71;70.39;99333.81;1089333;46;20034;-79
2021/11/25 05:53:28;;;;;;;25.23;16.20;;;;;;;2.71;70.23;99333.81;1088388;54;20036;-79
2021/11/25 05:54:31;;;;;;;25.48;15.98;;;;;;;2.71;70.36;99336.44;1088379;54;20019;-79
2021/11/25 05:55:35;;;;;;;25.40;15.05;;;;;;;2.70;70.33;99334.75;1122797;31;20778;-80
2021/11/25 05:56:40;;;;;;;25.42;16.15;;;;;;;2.69;70.63;99333.91;1090861;39;20724;-79
2021/11/25 05:57:42;;;;;;;25.75;16.77;;;;;;;2.69;70.57;99330.41;1088280;54;20041;-79
2021/11/25 05:58:47;;;;;;;24.67;16.95;;;;;;;2.63;70.48;99332.56;1088352;54;20061;-79
2021/11/25 05:59:50;;;;;;;25.65;16.90;;;;;;;2.65;70.63;99335.91;1088196;54;20023;-79
2021/11/25 06:00:55;;;;;;;25.38;16.05;;;;;;;2.63;70.75;99327.28;1088233;54;20098;-80
2021/11/25 06:02:08;;;;;;;25.73;16.08;;;;;;;2.67;70.65;99334.97;1088304;54;20025;-80
2021/11/25 06:03:15;;;;;;;23.40;14.80;;;;;;;2.69;70.49;99333.91;1088390;54;20045;-80
2021/11/25 06:04:20;;;;;;;24.52;14.32;;;;;;;2.73;70.41;99334.53;1088215;54;20050;-79
2021/11/25 06:05:39;;;;;;;25.15;16.52;;;;;;;2.76;70.37;99331.66;1088271;54;20026;-78
2021/11/25 06:06:44;;;;;;;22.13;14.13;;;;;;;2.83;70.34;99332.91;1088317;54;20049;-80
2021/11/25 06:07:59;;;;;;;24.25;15.63;;;;;;;2.81;70.33;99329.53;1088240;54;20023;-78
2021/11/25 06:09:04;;;;;;;24.23;14.90;;;;;;;2.78;70.38;99327.09;1088235;54;20042;-80
2021/11/25 06:10:22;;;;;;;21.52;14.05;;;;;;;2.79;70.25;99339.34;1088274;54;20030;-80
2021/11/25 06:11:27;;;;;;;25.30;15.63;;;;;;;2.80;70.56;99339.22;1088212;54;20075;-79
2021/11/25 06:13:06;;;;;;;25.20;16.13;;;;;;;2.74;70.60;99336.22;1088310;54;20087;-79
2021/11/25 06:14:08;;;;;;;27.80;16.42;;;;;;;2.71;70.82;99336.44;1108322;39;20642;-80
2021/11/25 06:15:15;;;;;;;23.75;15.43;;;;;;;2.68;70.52;99331.38;1088252;54;20018;-80
2021/11/25 06:16:17;;;;;;;25.35;16.60;;;;;;;2.72;70.71;99327.56;1088317;54;20015;-80
2021/11/25 06:17:22;;;;;;;23.92;15.70;;;;;;;2.74;70.77;99328.31;1088520;47;20034;-80
2021/11/25 06:18:27;;;;;;;22.17;14.07;;;;;;;2.80;70.49;99331.31;1088965;39;20635;-78
2021/11/25 06:19:35;;;;;;;20.05;12.60;;;;;;;2.86;70.51;99335.31;1088227;54;20038;-80
2021/11/25 06:20:37;;;;;;;22.38;14.20;;;;;;;2.90;70.29;99336.78;1088297;54;20031;-78
2021/11/25 06:21:42;;;;;;;24.73;15.85;;;;;;;2.85;70.46;99330.16;1088335;54;20030;-78
2021/11/25 06:22:46;;;;;;;23.35;15.35;;;;;;;2.78;70.49;99322.69;1088378;54;20018;-78
2021/11/25 06:23:57;;;;;;;23.88;14.90;;;;;;;2.77;70.61;99330.69;1088300;54;20034;-79
2021/11/25 06:24:59;;;;;;;23.52;14.70;;;;;;;2.83;70.36;99327.63;1090596;39;20649;-79
2021/11/25 06:26:30;;;;;;;24.48;15.68;;;;;;;2.80;70.59;99330.47;1088260;54;20045;-80
2021/11/25 06:27:41;;;;;;;21.58;14.45;;;;;;;2.78;70.82;99321.81;1088251;54;20686;-79
2021/11/25 06:28:45;;;;;;;;;;;;;;;2.75;70.98;99337.88;1088319;54;20019;-79
2021/11/25 06:29:54;;;;;;;27.55;16.50;;;;;;;2.68;70.73;99332.22;1088152;54;19927;-79
2021/11/25 06:30:59;;;;;;;24.40;14.10;;;;;;;2.77;70.73;99330.69;1090653;39;20681;-79
2021/11/25 06:32:13;;;;;;;25.05;15.88;;;;;;;2.80;70.47;99333.13;1088245;54;20042;-79
2021/11/25 06:33:28;;;;;;;27.42;16.15;;;;;;;2.77;70.52;99333.34;1088292;54;20057;-78
2021/11/25 06:36:20;;;;;;;26.38;15.15;;;;;;;2.73;70.71;99331.91;1087486;54;20033;-78
2021/11/25 06:37:22;;;;;;;23.17;15.23;;;;;;;2.70;70.78;99340.84;1088228;54;20039;-79
2021/11/25 06:38:27;;;;;;;24.42;16.48;;;;;;;2.69;70.69;99339.19;1088228;54;20011;-79
2021/11/25 06:39:34;;;;;;;24.23;16.38;;;;;;;2.71;71.01;99339.09;1088176;54;20022;-79
2021/11/25 06:40:39;;;;;;;24.38;16.10;;;;;;;2.71;70.89;99341.72;1088298;46;20061;-79
2021/11/25 06:41:41;;;;;;;26.23;16.88;;;;;;;2.74;71.09;99333.59;1088193;54;20026;-79
2021/11/25 06:43:03;;;;;;;25.65;16.40;;;;;;;2.77;71.41;99336.84;1088240;54;20031;-81
2021/11/25 06:44:05;;;;;;;26.73;16.48;;;;;;;2.85;70.93;99340.72;1088150;54;20027;-80
2021/11/25 06:45:31;;;;;;;28.27;17.50;;;;;;;2.81;71.12;99327.72;1088013;54;20061;-78
2021/11/25 06:46:54;;;;;;;25.60;17.05;;;;;;;2.83;70.88;99329.41;1088396;54;20030;-79
2021/11/25 06:47:56;;;;;;;27.92;17.58;;;;;;;2.76;70.85;99329.00;1090035;39;20705;-79
2021/11/25 06:49:01;;;;;;;26.42;16.70;;;;;;;2.78;70.85;99338.53;1088600;54;20057;-80
2021/11/25 06:50:04;;;;;;;26.48;16.85;;;;;;;2.83;70.81;99332.91;1088597;54;20018;-79
2021/11/25 06:51:08;;;;;;;25.40;16.15;;;;;;;2.87;70.85;99331.72;1088213;54;20030;-78
2021/11/25 06:52:12;;;;;;;23.98;15.63;;;;;;;2.87;70.32;99344.91;1087784;54;20039;-78
2021/11/25 06:53:14;;;;;;;26.13;17.10;;;;;;;2.83;70.55;99340.84;1087877;54;20042;-77
2021/11/25 06:54:18;;;;;;;23.80;15.50;;;;;;;2.88;70.83;99338.69;1088565;54;20014;-77
2021/11/25 06:55:25;;;;;;;22.65;14.50;;;;;;;2.93;70.64;99344.44;1087696;54;20792;-78
2021/11/25 06:56:27;;;;;;;25.80;15.77;;;;;;;2.90;70.46;99346.47;1087741;54;20341;-77
2021/11/25 06:57:31;;;;;;;23.67;15.38;;;;;;;2.93;70.58;99348.91;1087759;54;20030;-76
2021/11/25 06:58:33;;;;;;;22.70;15.15;;;;;;;2.95;70.53;99350.47;1087713;54;20038;-74
2021/11/25 06:59:41;;;;;;;22.42;14.43;;;;;;;2.97;70.64;99348.56;1089366;39;20697;-75
2021/11/25 07:00:46;;;;;;;22.25;14.45;;;;;;;2.98;70.36;99344.13;1087712;54;20033;-75
2021/11/25 07:01:58;;;;;;;25.80;15.27;;;;;;;2.97;70.25;99353.03;1088400;54;20050;-81
2021/11/25 07:03:00;;;;;;;24.10;14.70;;;;;;;2.99;70.38;99347.63;1088431;54;20915;-81
2021/11/25 07:04:19;;;;;;;23.27;14.70;;;;;;;2.92;70.15;99344.56;1088585;54;20026;-80
2021/11/25 07:05:22;;;;;;;21.60;13.75;;;;;;;3.02;70.20;99348.22;1088349;54;20041;-75
2021/11/25 07:06:27;;;;;;;23.02;13.52;;;;;;;3.07;70.01;99351.34;1087691;54;20686;-75
2021/11/25 07:07:29;;;;;;;22.33;13.25;;;;;;;3.07;69.95;99347.88;1087749;54;20042;-75
2021/11/25 07:08:40;;;;;;;24.90;14.82;;;;;;;3.04;69.57;99345.47;1088467;54;20888;-79
2021/11/25 07:09:44;;;;;;;22.17;13.80;;;;;;;3.06;69.95;99341.78;1088616;54;20034;-78
2021/11/25 07:10:58;;;;;;;24.67;14.57;;;;;;;3.05;69.92;99347.16;1088598;54;20014;-79
2021/11/25 07:12:03;;;;;;;22.27;15.13;;;;;;;3.02;70.05;99350.88;1098599;39;20669;-78
2021/11/25 07:13:20;;;;;;;22.00;14.18;;;;;;;3.00;69.95;99357.22;1088546;54;20023;-79
2021/11/25 07:14:21;;;;;;;22.50;13.90;;;;;;;3.08;69.94;99354.84;1088525;54;20038;-79